createdAt,value
2019-04-20T00:01:29.384Z,4.90
2019-04-20T00:03:56.909Z,4.73
2019-04-20T00:06:31.706Z,5.13
2019-04-20T00:09:07.425Z,5.03
2019-04-20T00:11:45.960Z,4.37
2019-04-20T00:14:13.500Z,4.60
2019-04-20T00:16:39.894Z,4.30
2019-04-20T00:19:17.214Z,6.37
2019-04-20T00:21:58.588Z,5.00
2019-04-20T00:24:49.627Z,5.80
2019-04-20T00:27:44.480Z,5.27
2019-04-20T00:30:06.808Z,5.80
2019-04-20T00:32:41.310Z,5.27
2019-04-20T00:34:57.969Z,5.37
2019-04-20T00:37:29.736Z,5.63
2019-04-20T00:40:01.633Z,5.60
2019-04-20T00:42:39.150Z,5.70
2019-04-20T00:45:12.936Z,4.53
2019-04-20T00:47:47.847Z,5.37
2019-04-20T00:50:29.787Z,4.53
2019-04-20T00:52:54.377Z,4.83
2019-04-20T00:55:17.038Z,5.70
2019-04-20T00:57:54.846Z,5.67
2019-04-20T01:00:37.101Z,5.23
2019-04-20T01:03:09.618Z,5.63
2019-04-20T01:06:06.285Z,5.87
2019-04-20T01:08:48.496Z,5.47
2019-04-20T01:11:27.010Z,5.33
2019-04-20T01:13:56.067Z,5.50
2019-04-20T01:16:36.822Z,5.10
2019-04-20T01:18:57.111Z,5.33
2019-04-20T01:21:30.934Z,5.53
2019-04-20T01:24:03.542Z,5.30
2019-04-20T01:26:36.485Z,5.43
2019-04-20T01:29:17.025Z,5.47
2019-04-20T01:31:52.950Z,5.50
2019-04-20T01:34:26.950Z,5.43
2019-04-20T01:37:00.622Z,6.20
2019-04-20T01:39:26.356Z,5.57
2019-04-20T01:41:49.652Z,6.20
2019-04-20T01:44:27.029Z,6.23
2019-04-20T01:46:58.401Z,5.87
2019-04-20T01:49:30.603Z,5.93
2019-04-20T01:52:07.113Z,6.60
2019-04-20T01:54:52.231Z,5.93
2019-04-20T01:57:32.987Z,6.07
2019-04-20T02:00:18.215Z,6.07
2019-04-20T02:02:56.523Z,6.20
2019-04-20T02:05:29.102Z,6.63
2019-04-20T02:07:57.094Z,5.57
2019-04-20T02:10:37.103Z,5.77
2019-04-20T02:13:04.346Z,6.27
2019-04-20T02:15:40.393Z,5.57
2019-04-20T02:18:17.587Z,6.13
2019-04-20T02:20:59.814Z,6.00
2019-04-20T02:23:24.877Z,6.20
2019-04-20T02:25:44.341Z,5.70
2019-04-20T02:28:34.287Z,6.20
2019-04-20T02:31:24.812Z,6.13
2019-04-20T02:33:55.765Z,5.90
2019-04-20T02:36:40.379Z,5.60
2019-04-20T02:39:22.134Z,5.57
2019-04-20T02:41:44.991Z,5.60
2019-04-20T02:44:21.637Z,6.17
2019-04-20T02:46:49.576Z,6.50
2019-04-20T02:49:35.388Z,5.63
2019-04-20T02:52:02.971Z,7.37
2019-04-20T02:54:18.590Z,6.60
2019-04-20T03:01:50.221Z,6.63
2019-04-20T03:04:06.948Z,6.33
2019-04-20T03:06:53.464Z,6.00
2019-04-20T03:09:32.498Z,6.57
2019-04-20T03:12:04.807Z,5.97
2019-04-20T03:14:26.566Z,6.23
2019-04-20T03:17:09.900Z,6.33
2019-04-20T03:19:33.995Z,7.00
2019-04-20T03:22:13.827Z,6.23
2019-04-20T03:24:51.552Z,6.33
2019-04-20T03:27:31.112Z,6.10
2019-04-20T03:30:22.793Z,6.60
2019-04-20T03:35:25.073Z,5.87
2019-04-20T03:37:52.629Z,6.50
2019-04-20T03:40:21.355Z,6.43
2019-04-20T03:42:40.009Z,6.83
2019-04-20T03:45:14.996Z,6.13
2019-04-20T03:47:57.373Z,6.63
2019-04-20T03:50:45.085Z,6.53
2019-04-20T03:53:12.855Z,6.93
2019-04-20T03:55:52.865Z,6.80
2019-04-20T03:58:44.303Z,7.03
2019-04-20T04:01:55.575Z,7.17
2019-04-20T04:04:16.742Z,6.83
2019-04-20T04:06:33.987Z,6.77
2019-04-20T04:09:12.312Z,7.77
2019-04-20T04:11:46.086Z,6.20
2019-04-20T04:14:04.892Z,6.50
2019-04-20T04:16:42.815Z,7.00
2019-04-20T04:19:16.143Z,7.73
2019-04-20T04:21:55.620Z,7.67
2019-04-20T04:24:26.081Z,7.10
2019-04-20T04:27:00.803Z,6.63
2019-04-20T04:29:44.176Z,7.07
2019-04-20T04:32:21.102Z,7.03
2019-04-20T04:34:44.628Z,7.53
2019-04-20T04:37:17.945Z,7.90
2019-04-20T04:39:49.111Z,7.97
2019-04-20T04:42:22.288Z,7.73
2019-04-20T04:44:44.680Z,8.67
2019-04-20T04:47:08.714Z,7.67
2019-04-20T04:49:42.645Z,8.30
2019-04-20T04:52:15.496Z,8.00
2019-04-20T04:54:53.513Z,8.53
2019-04-20T04:57:16.191Z,9.23
2019-04-20T04:59:48.633Z,8.63
2019-04-20T05:02:23.576Z,9.37
2019-04-20T05:05:30.804Z,10.53
2019-04-20T05:07:57.877Z,9.83
2019-04-20T05:10:18.963Z,10.57
2019-04-20T05:12:51.289Z,10.30
2019-04-20T05:15:37.634Z,10.43
2019-04-20T05:18:12.854Z,9.10
2019-04-20T05:20:55.771Z,10.63
2019-04-20T05:23:32.961Z,10.70
2019-04-20T05:26:44.585Z,8.77
2019-04-20T05:29:07.566Z,9.67
2019-04-20T05:31:39.720Z,8.50
2019-04-20T05:34:26.083Z,8.77
2019-04-20T05:36:57.409Z,8.50
2019-04-20T05:39:35.114Z,9.13
2019-04-20T05:41:58.272Z,9.37
2019-04-20T05:44:44.421Z,8.20
2019-04-20T05:47:11.231Z,8.33
2019-04-20T05:49:41.977Z,7.33
2019-04-20T05:52:29.054Z,8.55
2019-04-20T05:54:51.970Z,6.58
2019-04-20T05:57:27.828Z,8.33
2019-04-20T06:00:05.266Z,8.10
2019-04-20T06:02:27.373Z,6.05
2019-04-20T06:05:05.380Z,7.80
2019-04-20T06:07:31.392Z,6.45
2019-04-20T06:10:07.811Z,6.65
2019-04-20T06:12:35.817Z,5.95
2019-04-20T06:15:40.758Z,6.83
2019-04-20T06:18:13.838Z,7.15
2019-04-20T06:21:08.237Z,5.42
2019-04-20T06:23:41.352Z,7.17
2019-04-20T06:26:21.184Z,9.93
2019-04-20T06:28:36.602Z,6.92
2019-04-20T06:31:14.928Z,5.87
2019-04-20T06:36:49.653Z,5.40
2019-04-20T06:39:26.008Z,5.10
2019-04-20T06:44:31.977Z,5.95
2019-04-20T06:52:42.569Z,5.60
2019-04-20T06:55:08.788Z,5.12
2019-04-20T06:57:45.299Z,5.97
2019-04-20T07:00:18.289Z,5.10
2019-04-20T07:02:52.289Z,5.65
2019-04-20T07:08:05.892Z,5.30
2019-04-20T07:10:32.476Z,6.08
2019-04-20T07:12:55.315Z,5.75
2019-04-20T07:15:36.632Z,5.47
2019-04-20T07:18:18.183Z,5.00
2019-04-20T07:21:16.096Z,5.30
2019-04-20T07:23:48.241Z,5.50
2019-04-20T07:26:22.357Z,5.97
2019-04-20T07:28:54.464Z,5.22
2019-04-20T07:31:18.808Z,4.83
2019-04-20T07:33:57.168Z,5.15
2019-04-20T07:36:32.289Z,4.78
2019-04-20T07:39:08.966Z,4.72
2019-04-20T07:41:42.955Z,5.47
2019-04-20T07:44:11.889Z,5.35
2019-04-20T07:46:57.773Z,4.97
2019-04-20T07:49:12.789Z,4.87
2019-04-20T07:51:32.309Z,4.70
2019-04-20T07:54:24.698Z,5.35
2019-04-20T07:56:47.643Z,4.70
2019-04-20T07:59:14.026Z,5.45
2019-04-20T08:02:36.556Z,5.17
2019-04-20T08:05:06.060Z,5.08
2019-04-20T08:07:35.235Z,4.25
2019-04-20T08:10:01.899Z,4.40
2019-04-20T08:12:55.633Z,5.20
2019-04-20T08:15:38.059Z,4.67
2019-04-20T08:17:59.911Z,4.17
2019-04-20T08:20:25.835Z,4.25
2019-04-20T08:23:09.285Z,4.95
2019-04-20T08:25:23.545Z,4.62
2019-04-20T08:28:24.185Z,4.42
2019-04-20T08:31:29.718Z,4.28
2019-04-20T08:34:31.322Z,5.40
2019-04-20T08:36:48.716Z,4.78
2019-04-20T08:39:35.326Z,4.75
2019-04-20T08:41:56.349Z,4.55
2019-04-20T08:44:47.036Z,5.03
2019-04-20T08:47:06.110Z,6.72
2019-04-20T08:49:29.506Z,4.75
2019-04-20T08:52:13.053Z,4.30
2019-04-20T08:54:32.308Z,4.15
2019-04-20T08:56:52.152Z,5.28
2019-04-20T08:59:18.925Z,4.62
2019-04-20T09:01:51.111Z,5.10
2019-04-20T09:04:34.841Z,4.25
2019-04-20T09:07:05.536Z,4.28
2019-04-20T09:09:49.097Z,4.17
2019-04-20T09:12:17.920Z,4.55
2019-04-20T09:14:36.147Z,4.35
2019-04-20T09:17:14.122Z,5.28
2019-04-20T09:19:52.750Z,5.72
2019-04-20T09:22:49.392Z,5.78
2019-04-20T09:25:48.746Z,5.83
2019-04-20T09:28:11.542Z,5.28
2019-04-20T09:30:47.840Z,5.90
2019-04-20T09:34:02.763Z,5.10
2019-04-20T09:36:51.386Z,4.80
2019-04-20T09:39:54.383Z,4.25
2019-04-20T09:42:20.601Z,6.25
2019-04-20T09:44:55.993Z,5.85
2019-04-20T09:47:33.736Z,5.00
2019-04-20T09:50:12.775Z,6.05
2019-04-20T09:52:49.090Z,4.90
2019-04-20T09:55:14.916Z,4.97
2019-04-20T09:57:54.079Z,5.40
2019-04-20T10:00:25.819Z,5.45
2019-04-20T10:02:42.844Z,5.72
2019-04-20T10:05:15.605Z,5.17
2019-04-20T10:07:49.316Z,5.15
2019-04-20T10:10:28.806Z,5.17
2019-04-20T10:12:52.205Z,6.55
2019-04-20T10:15:26.317Z,5.45
2019-04-20T10:17:56.071Z,5.10
2019-04-20T10:20:31.322Z,5.22
2019-04-20T10:23:00.537Z,5.72
2019-04-20T10:25:32.802Z,5.08
2019-04-20T10:28:05.425Z,5.62
2019-04-20T10:30:36.693Z,5.35
2019-04-20T10:33:07.772Z,6.35
2019-04-20T10:35:39.426Z,5.47
2019-04-20T10:38:33.758Z,4.78
2019-04-20T10:41:11.654Z,6.10
2019-04-20T10:43:36.933Z,5.83
2019-04-20T10:46:08.976Z,5.25
2019-04-20T10:48:45.924Z,6.15
2019-04-20T10:51:12.830Z,6.30
2019-04-20T10:53:44.828Z,5.40
2019-04-20T10:56:16.648Z,5.28
2019-04-20T10:58:47.625Z,5.50
2019-04-20T11:01:19.852Z,5.28
2019-04-20T11:03:50.846Z,5.45
2019-04-20T11:06:22.717Z,5.87
2019-04-20T11:08:54.536Z,5.30
2019-04-20T11:11:28.385Z,5.17
2019-04-20T11:13:59.894Z,5.50
2019-04-20T11:16:32.705Z,5.55
2019-04-20T11:19:03.721Z,5.50
2019-04-20T11:21:34.710Z,5.70
2019-04-20T11:24:05.544Z,5.45
2019-04-20T11:26:38.328Z,5.83
2019-04-20T11:29:10.431Z,5.40
2019-04-20T11:31:46.494Z,5.65
2019-04-20T11:34:14.887Z,6.30
2019-04-20T11:36:46.523Z,5.42
2019-04-20T11:39:18.784Z,6.37
2019-04-20T11:41:49.845Z,5.75
2019-04-20T11:44:20.808Z,5.97
2019-04-20T11:46:52.544Z,5.60
2019-04-20T11:49:23.862Z,5.08
2019-04-20T11:51:57.241Z,4.92
2019-04-20T11:54:28.372Z,4.60
2019-04-20T11:56:59.521Z,4.97
2019-04-20T11:59:30.584Z,6.03
2019-04-20T12:02:27.955Z,6.03
2019-04-20T12:05:10.307Z,6.45
2019-04-20T12:07:35.227Z,5.42
2019-04-20T12:10:12.045Z,5.80
2019-04-20T12:12:42.588Z,5.90
2019-04-20T12:15:12.656Z,5.45
2019-04-20T12:17:43.989Z,6.87
2019-04-20T12:20:16.634Z,5.70
2019-04-20T12:22:48.414Z,4.90
2019-04-20T12:25:20.459Z,5.28
2019-04-20T12:27:55.178Z,4.72
2019-04-20T12:30:25.784Z,4.75
2019-04-20T12:33:00.198Z,4.72
2019-04-20T12:35:29.972Z,5.15
2019-04-20T12:38:01.019Z,5.60
2019-04-20T12:40:32.349Z,5.00
2019-04-20T12:43:04.753Z,4.95
2019-04-20T12:45:35.986Z,4.17
2019-04-20T12:48:08.003Z,4.17
2019-04-20T12:50:39.551Z,4.33
2019-04-20T12:53:11.044Z,4.30
2019-04-20T12:55:41.957Z,4.62
2019-04-20T12:58:14.489Z,5.62
2019-04-20T13:00:49.655Z,4.55
2019-04-20T13:03:21.457Z,3.83
2019-04-20T13:05:54.285Z,5.08
2019-04-20T13:08:33.640Z,4.55
2019-04-20T13:11:06.614Z,4.20
2019-04-20T13:14:08.645Z,4.35
2019-04-20T13:16:40.595Z,5.05
2019-04-20T13:19:13.056Z,4.00
2019-04-20T13:21:45.143Z,4.42
2019-04-20T13:24:16.755Z,4.75
2019-04-20T13:26:48.989Z,3.98
2019-04-20T13:29:20.357Z,3.70
2019-04-20T13:31:53.752Z,3.20
2019-04-20T13:34:24.484Z,4.08
2019-04-20T13:36:56.470Z,4.83
2019-04-20T13:39:27.330Z,4.37
2019-04-20T13:42:09.578Z,3.92
2019-04-20T13:44:30.759Z,3.80
2019-04-20T13:47:03.096Z,3.67
2019-04-20T13:49:34.078Z,2.90
2019-04-20T13:52:06.719Z,3.83
2019-04-20T13:54:38.063Z,3.95
2019-04-20T13:57:11.136Z,3.50
2019-04-20T13:59:46.387Z,3.05
2019-04-20T14:02:40.739Z,3.45
2019-04-20T14:05:12.844Z,4.25
2019-04-20T14:07:44.979Z,3.20
2019-04-20T14:10:17.406Z,3.67
2019-04-20T14:12:58.728Z,3.72
2019-04-20T14:15:20.973Z,2.83
2019-04-20T14:17:53.037Z,3.75
2019-04-20T14:20:25.449Z,2.80
2019-04-20T14:22:56.957Z,2.92
2019-04-20T14:25:29.101Z,3.30
2019-04-20T14:28:00.700Z,3.72
2019-04-20T14:30:33.002Z,3.42
2019-04-20T14:33:05.218Z,3.30
2019-04-20T14:35:36.992Z,3.47
2019-04-20T14:38:08.149Z,3.10
2019-04-20T14:40:39.998Z,3.15
2019-04-20T14:43:13.000Z,3.77
2019-04-20T14:45:45.039Z,4.03
2019-04-20T14:48:16.388Z,2.80
2019-04-20T14:50:47.710Z,2.52
2019-04-20T14:53:19.857Z,2.98
2019-04-20T14:55:51.443Z,3.55
2019-04-20T14:58:41.576Z,3.92
2019-04-20T15:01:26.872Z,3.15
2019-04-20T15:04:04.774Z,3.62
2019-04-20T15:06:34.498Z,3.00
2019-04-20T15:09:06.722Z,3.62
2019-04-20T15:11:41.755Z,2.70
2019-04-20T15:14:11.984Z,3.42
2019-04-20T15:16:42.853Z,4.00
2019-04-20T15:19:31.659Z,3.10
2019-04-20T15:22:05.452Z,3.25
2019-04-20T15:24:37.596Z,3.00
2019-04-20T15:27:08.532Z,3.62
2019-04-20T15:29:40.128Z,3.90
2019-04-20T15:32:11.137Z,3.30
2019-04-20T15:34:42.689Z,4.22
2019-04-20T15:37:14.108Z,4.12
2019-04-20T15:39:45.282Z,3.92
2019-04-20T15:42:17.126Z,4.25
2019-04-20T15:44:49.294Z,3.62
2019-04-20T15:47:22.271Z,3.20
2019-04-20T15:49:53.716Z,3.12
2019-04-20T15:52:29.435Z,3.55
2019-04-20T15:54:57.276Z,2.47
2019-04-20T15:57:29.750Z,3.33
2019-04-20T16:00:00.642Z,3.65
2019-04-20T16:02:36.827Z,3.08
2019-04-20T16:05:37.559Z,2.98
2019-04-20T16:08:21.375Z,3.98
2019-04-20T16:10:53.118Z,3.80
2019-04-20T16:13:31.452Z,2.83
2019-04-20T16:15:57.977Z,3.08
2019-04-20T16:18:30.787Z,2.98
2019-04-20T16:21:07.978Z,3.52
2019-04-20T16:23:48.536Z,3.47
2019-04-20T16:26:37.876Z,3.22
2019-04-20T16:29:09.178Z,3.05
2019-04-20T16:31:40.509Z,3.35
2019-04-20T16:34:13.577Z,3.05
2019-04-20T16:36:44.620Z,2.75
2019-04-20T16:39:16.546Z,3.25
2019-04-20T16:41:48.532Z,3.95
2019-04-20T16:44:21.148Z,3.47
2019-04-20T16:46:52.213Z,3.33
2019-04-20T16:49:23.384Z,3.10
2019-04-20T16:51:54.911Z,4.05
2019-04-20T16:54:26.024Z,2.60
2019-04-20T16:56:56.987Z,3.37
2019-04-20T16:59:28.244Z,3.27
2019-04-20T17:02:00.385Z,3.45
2019-04-20T17:04:32.566Z,3.55
2019-04-20T17:07:21.640Z,3.75
2019-04-20T17:09:54.008Z,3.52
2019-04-20T17:12:25.812Z,3.52
2019-04-20T17:14:57.829Z,3.98
2019-04-20T17:17:29.432Z,3.17
2019-04-20T17:20:01.773Z,3.35
2019-04-20T17:22:32.821Z,3.70
2019-04-20T17:25:04.023Z,3.47
2019-04-20T17:27:49.125Z,3.33
2019-04-20T17:30:42.021Z,3.22
2019-04-20T17:33:15.885Z,4.28
2019-04-20T17:35:55.208Z,3.60
2019-04-20T17:38:20.556Z,3.25
2019-04-20T17:41:11.319Z,3.33
2019-04-20T17:43:31.619Z,3.17
2019-04-20T17:46:04.735Z,4.42
2019-04-20T17:48:42.148Z,3.87
2019-04-20T17:51:23.543Z,3.60
2019-04-20T17:54:05.130Z,4.22
2019-04-20T17:56:40.821Z,3.10
2019-04-20T17:59:12.705Z,3.35
2019-04-20T18:02:30.616Z,3.52
2019-04-20T18:05:29.857Z,3.50
2019-04-20T18:07:56.346Z,3.85
2019-04-20T18:10:29.021Z,3.40
2019-04-20T18:12:46.212Z,3.17
2019-04-20T18:15:31.300Z,3.05
2019-04-20T18:18:25.209Z,4.12
2019-04-20T18:21:01.084Z,3.70
2019-04-20T18:23:37.928Z,3.15
2019-04-20T18:26:30.604Z,3.42
2019-04-20T18:28:58.818Z,3.27
2019-04-20T18:31:22.007Z,3.65
2019-04-20T18:33:56.204Z,3.12
2019-04-20T18:36:31.205Z,3.77
2019-04-20T18:39:06.248Z,3.40
2019-04-20T18:41:41.771Z,3.62
2019-04-20T18:44:06.613Z,3.52
2019-04-20T18:47:03.519Z,3.70
2019-04-20T18:49:28.218Z,3.25
2019-04-20T18:51:43.970Z,3.80
2019-04-20T18:54:20.958Z,4.20
2019-04-20T18:56:50.830Z,3.55
2019-04-20T18:59:23.447Z,3.58
2019-04-20T19:01:53.109Z,3.50
2019-04-20T19:04:25.818Z,3.75
2019-04-20T19:06:57.404Z,3.25
2019-04-20T19:09:30.420Z,3.55
2019-04-20T19:12:04.645Z,4.33
2019-04-20T19:14:48.910Z,4.08
2019-04-20T19:18:06.972Z,3.40
2019-04-20T19:20:28.944Z,3.30
2019-04-20T19:23:00.146Z,3.90
2019-04-20T19:25:36.654Z,4.35
2019-04-20T19:28:05.079Z,3.60
2019-04-20T19:30:46.093Z,3.87
2019-04-20T19:33:22.706Z,4.00
2019-04-20T19:35:51.934Z,4.58
2019-04-20T19:38:20.706Z,4.05
2019-04-20T19:40:56.452Z,4.17
2019-04-20T19:43:25.339Z,4.03
2019-04-20T19:46:33.711Z,4.33
2019-04-20T19:48:39.675Z,3.98
2019-04-20T19:51:17.377Z,4.33
2019-04-20T19:53:48.820Z,5.67
2019-04-20T19:56:16.717Z,5.47
2019-04-20T19:58:47.244Z,4.97
2019-04-20T20:01:06.943Z,4.90
2019-04-20T20:03:37.804Z,5.03
2019-04-20T20:06:11.983Z,4.57
2019-04-20T20:08:43.445Z,4.53
2019-04-20T20:11:21.634Z,5.00
2019-04-20T20:13:51.713Z,5.40
2019-04-20T20:16:30.335Z,4.60
2019-04-20T20:19:03.895Z,5.10
2019-04-20T20:21:38.572Z,4.50
2019-04-20T20:23:56.519Z,5.53
2019-04-20T20:26:34.488Z,5.70
2019-04-20T20:29:09.717Z,4.33
2019-04-20T20:31:51.450Z,5.17
2019-04-20T20:34:14.277Z,4.37
2019-04-20T20:36:47.331Z,5.03
2019-04-20T20:39:21.326Z,5.87
2019-04-20T20:42:00.461Z,4.60
2019-04-20T20:44:37.281Z,5.47
2019-04-20T20:47:10.706Z,4.97
2019-04-20T20:49:48.810Z,5.83
2019-04-20T20:52:17.339Z,5.30
2019-04-20T20:54:43.634Z,5.97
2019-04-20T20:57:11.451Z,4.23
2019-04-20T20:59:48.219Z,5.50
2019-04-20T21:02:15.795Z,5.50
2019-04-20T21:04:43.736Z,4.97
2019-04-20T21:07:14.665Z,5.63
2019-04-20T21:09:46.077Z,5.47
2019-04-20T21:12:19.771Z,5.00
2019-04-20T21:14:51.047Z,5.33
2019-04-20T21:17:25.589Z,5.73
2019-04-20T21:20:14.460Z,5.40
2019-04-20T21:22:50.319Z,5.20
2019-04-20T21:25:01.208Z,5.17
2019-04-20T21:27:32.942Z,5.50
2019-04-20T21:30:10.921Z,5.83
2019-04-20T21:32:45.661Z,6.13
2019-04-20T21:35:15.955Z,5.07
2019-04-20T21:37:51.221Z,5.10
2019-04-20T21:40:27.971Z,4.67
2019-04-20T21:42:58.381Z,5.80
2019-04-20T21:45:28.678Z,5.73
2019-04-20T21:47:56.490Z,5.67
2019-04-20T21:50:44.117Z,6.00
2019-04-20T21:53:08.667Z,6.03
2019-04-20T21:55:34.118Z,5.40
2019-04-20T21:58:06.663Z,6.10
2019-04-20T22:01:05.141Z,5.10
2019-04-20T22:03:28.063Z,6.43
2019-04-20T22:06:04.900Z,5.53
2019-04-20T22:08:39.505Z,5.13
2019-04-20T22:11:08.401Z,5.23
2019-04-20T22:13:42.618Z,6.03
2019-04-20T22:16:14.350Z,5.20
2019-04-20T22:18:52.956Z,5.30
2019-04-20T22:21:25.823Z,5.73
2019-04-20T22:24:04.294Z,5.93
2019-04-20T22:26:30.701Z,5.63
2019-04-20T22:28:56.195Z,5.20
2019-04-20T22:31:27.150Z,5.40
2019-04-20T22:34:00.739Z,4.23
2019-04-20T22:36:37.902Z,5.33
2019-04-20T22:39:13.737Z,5.30
2019-04-20T22:41:59.189Z,5.40
2019-04-20T22:44:28.718Z,5.80
2019-04-20T22:47:00.353Z,5.73
2019-04-20T22:49:45.493Z,5.83
2019-04-20T22:52:24.046Z,5.80
2019-04-20T22:54:55.055Z,5.63
2019-04-20T22:57:27.754Z,6.47
2019-04-20T22:59:52.357Z,5.83
2019-04-20T23:02:16.310Z,5.70
2019-04-20T23:04:46.921Z,6.17
2019-04-20T23:07:18.845Z,5.37
2019-04-20T23:09:54.173Z,6.27
2019-04-20T23:12:24.822Z,6.30
2019-04-20T23:14:54.760Z,6.70
2019-04-20T23:17:33.529Z,6.07
2019-04-20T23:20:01.358Z,6.13
2019-04-20T23:22:36.661Z,6.23
2019-04-20T23:25:04.874Z,5.40
2019-04-20T23:27:37.322Z,5.20
2019-04-20T23:30:14.715Z,6.50
2019-04-20T23:32:42.163Z,6.27
2019-04-20T23:35:18.145Z,5.53
2019-04-20T23:37:46.492Z,6.20
2019-04-20T23:40:19.572Z,6.57
2019-04-20T23:42:55.821Z,6.37
2019-04-20T23:45:49.865Z,5.37
2019-04-20T23:48:43.427Z,5.53
2019-04-20T23:51:36.910Z,6.00
2019-04-20T23:53:56.707Z,6.63
2019-04-20T23:56:20.873Z,6.20
2019-04-20T23:58:54.803Z,5.13
